sensor_id;sensor_type;location;lat;lon;timestamp;temperature;humidity
15625;DHT22;7912;51.376;6.126;2024-01-30T00:02:21;10.60;99.90
15625;DHT22;7912;51.376;6.126;2024-01-30T00:04:48;10.60;99.90
15625;DHT22;7912;51.376;6.126;2024-01-30T00:07:16;10.60;99.90
15625;DHT22;7912;51.376;6.126;2024-01-30T00:09:46;10.60;99.90
15625;DHT22;7912;51.376;6.126;2024-01-30T00:15:41;10.60;99.90
15625;DHT22;7912;51.376;6.126;2024-01-30T00:18:08;10.60;99.90
15625;DHT22;7912;51.376;6.126;2024-01-30T00:20:36;10.50;99.90
15625;DHT22;7912;51.376;6.126;2024-01-30T00:23:03;10.50;99.90
15625;DHT22;7912;51.376;6.126;2024-01-30T00:25:31;10.50;99.90
15625;DHT22;7912;51.376;6.126;2024-01-30T00:28:03;10.50;99.90
15625;DHT22;7912;51.376;6.126;2024-01-30T00:33:48;10.50;99.90
15625;DHT22;7912;51.376;6.126;2024-01-30T00:36:15;10.50;99.90
15625;DHT22;7912;51.376;6.126;2024-01-30T00:38:43;10.50;99.90
15625;DHT22;7912;51.376;6.126;2024-01-30T00:41:10;10.50;99.90
15625;DHT22;7912;51.376;6.126;2024-01-30T00:43:38;10.50;99.90
15625;DHT22;7912;51.376;6.126;2024-01-30T00:46:05;10.40;99.90
15625;DHT22;7912;51.376;6.126;2024-01-30T00:48:32;10.40;99.90
15625;DHT22;7912;51.376;6.126;2024-01-30T00:51:00;10.40;99.90
15625;DHT22;7912;51.376;6.126;2024-01-30T00:53:27;10.30;99.90
15625;DHT22;7912;51.376;6.126;2024-01-30T00:55:54;10.30;99.90
15625;DHT22;7912;51.376;6.126;2024-01-30T00:58:21;10.30;99.90
15625;DHT22;7912;51.376;6.126;2024-01-30T01:00:49;10.30;99.90
15625;DHT22;7912;51.376;6.126;2024-01-30T01:03:18;10.30;99.90
15625;DHT22;7912;51.376;6.126;2024-01-30T01:05:45;10.30;99.90
15625;DHT22;7912;51.376;6.126;2024-01-30T01:08:13;10.20;99.90
15625;DHT22;7912;51.376;6.126;2024-01-30T01:10:41;10.30;99.90
15625;DHT22;7912;51.376;6.126;2024-01-30T01:13:09;10.20;99.90
15625;DHT22;7912;51.376;6.126;2024-01-30T01:15:36;10.20;99.90
15625;DHT22;7912;51.376;6.126;2024-01-30T01:18:04;10.20;99.90
15625;DHT22;7912;51.376;6.126;2024-01-30T01:20:31;10.20;99.90
15625;DHT22;7912;51.376;6.126;2024-01-30T01:22:58;10.20;99.90
15625;DHT22;7912;51.376;6.126;2024-01-30T01:25:26;10.20;99.90
15625;DHT22;7912;51.376;6.126;2024-01-30T01:27:53;10.10;99.90
15625;DHT22;7912;51.376;6.126;2024-01-30T01:30:21;10.10;99.90
15625;DHT22;7912;51.376;6.126;2024-01-30T01:32:49;10.10;99.90
15625;DHT22;7912;51.376;6.126;2024-01-30T01:35:28;10.10;99.90
15625;DHT22;7912;51.376;6.126;2024-01-30T01:37:57;10.10;99.90
15625;DHT22;7912;51.376;6.126;2024-01-30T01:40:27;10.20;99.90
15625;DHT22;7912;51.376;6.126;2024-01-30T01:42:55;10.10;99.90
15625;DHT22;7912;51.376;6.126;2024-01-30T01:45:23;10.20;99.90
15625;DHT22;7912;51.376;6.126;2024-01-30T01:47:51;10.10;99.90
15625;DHT22;7912;51.376;6.126;2024-01-30T01:50:21;10.20;99.90
15625;DHT22;7912;51.376;6.126;2024-01-30T01:52:51;10.20;99.90
15625;DHT22;7912;51.376;6.126;2024-01-30T01:55:21;10.20;99.90
15625;DHT22;7912;51.376;6.126;2024-01-30T01:57:53;10.20;99.90
15625;DHT22;7912;51.376;6.126;2024-01-30T02:00:21;10.20;99.90
15625;DHT22;7912;51.376;6.126;2024-01-30T02:02:49;10.20;99.90
15625;DHT22;7912;51.376;6.126;2024-01-30T02:05:18;10.20;99.90
15625;DHT22;7912;51.376;6.126;2024-01-30T02:07:46;10.20;99.90
15625;DHT22;7912;51.376;6.126;2024-01-30T02:10:16;10.20;99.90
15625;DHT22;7912;51.376;6.126;2024-01-30T02:12:45;10.30;99.90
15625;DHT22;7912;51.376;6.126;2024-01-30T02:15:13;10.30;99.90
15625;DHT22;7912;51.376;6.126;2024-01-30T02:17:41;10.30;99.90
15625;DHT22;7912;51.376;6.126;2024-01-30T02:20:08;10.30;99.90
15625;DHT22;7912;51.376;6.126;2024-01-30T02:22:37;10.30;99.90
15625;DHT22;7912;51.376;6.126;2024-01-30T02:25:06;10.30;99.90
15625;DHT22;7912;51.376;6.126;2024-01-30T02:27:33;10.30;99.90
15625;DHT22;7912;51.376;6.126;2024-01-30T02:30:01;10.40;99.90
15625;DHT22;7912;51.376;6.126;2024-01-30T02:32:28;10.40;99.90
15625;DHT22;7912;51.376;6.126;2024-01-30T02:34:56;10.40;99.90
15625;DHT22;7912;51.376;6.126;2024-01-30T02:37:23;10.40;99.90
15625;DHT22;7912;51.376;6.126;2024-01-30T02:39:50;10.40;99.90
15625;DHT22;7912;51.376;6.126;2024-01-30T02:42:18;10.40;99.90
15625;DHT22;7912;51.376;6.126;2024-01-30T02:44:45;10.40;99.90
15625;DHT22;7912;51.376;6.126;2024-01-30T02:47:12;10.40;99.90
15625;DHT22;7912;51.376;6.126;2024-01-30T02:49:39;10.40;99.90
15625;DHT22;7912;51.376;6.126;2024-01-30T02:52:07;10.50;99.90
15625;DHT22;7912;51.376;6.126;2024-01-30T02:54:34;10.50;99.90
15625;DHT22;7912;51.376;6.126;2024-01-30T02:57:02;10.50;99.90
15625;DHT22;7912;51.376;6.126;2024-01-30T02:59:29;10.50;99.90
15625;DHT22;7912;51.376;6.126;2024-01-30T03:01:57;10.50;99.90
15625;DHT22;7912;51.376;6.126;2024-01-30T03:04:24;10.50;99.90
15625;DHT22;7912;51.376;6.126;2024-01-30T03:06:51;10.50;99.90
15625;DHT22;7912;51.376;6.126;2024-01-30T03:09:19;10.60;99.90
15625;DHT22;7912;51.376;6.126;2024-01-30T03:11:46;10.50;99.90
15625;DHT22;7912;51.376;6.126;2024-01-30T03:14:13;10.50;99.90
15625;DHT22;7912;51.376;6.126;2024-01-30T03:16:40;10.50;99.90
15625;DHT22;7912;51.376;6.126;2024-01-30T03:19:08;10.50;99.90
15625;DHT22;7912;51.376;6.126;2024-01-30T03:21:38;10.50;99.90
15625;DHT22;7912;51.376;6.126;2024-01-30T03:24:05;10.50;99.90
15625;DHT22;7912;51.376;6.126;2024-01-30T03:26:32;10.50;99.90
15625;DHT22;7912;51.376;6.126;2024-01-30T03:29:00;10.50;99.90
15625;DHT22;7912;51.376;6.126;2024-01-30T03:31:27;10.50;99.90
15625;DHT22;7912;51.376;6.126;2024-01-30T03:33:54;10.50;99.90
15625;DHT22;7912;51.376;6.126;2024-01-30T03:36:22;10.50;99.90
15625;DHT22;7912;51.376;6.126;2024-01-30T03:38:49;10.50;99.90
15625;DHT22;7912;51.376;6.126;2024-01-30T03:41:16;10.40;99.90
15625;DHT22;7912;51.376;6.126;2024-01-30T03:43:43;10.40;99.90
15625;DHT22;7912;51.376;6.126;2024-01-30T03:46:14;10.40;99.90
15625;DHT22;7912;51.376;6.126;2024-01-30T03:48:41;10.40;99.90
15625;DHT22;7912;51.376;6.126;2024-01-30T03:51:09;10.50;99.90
15625;DHT22;7912;51.376;6.126;2024-01-30T03:53:42;10.50;99.90
15625;DHT22;7912;51.376;6.126;2024-01-30T03:56:10;10.40;99.90
15625;DHT22;7912;51.376;6.126;2024-01-30T03:58:43;10.40;99.90
15625;DHT22;7912;51.376;6.126;2024-01-30T04:04:15;10.50;99.90
15625;DHT22;7912;51.376;6.126;2024-01-30T04:06:44;10.40;99.90
15625;DHT22;7912;51.376;6.126;2024-01-30T04:09:13;10.40;99.90
15625;DHT22;7912;51.376;6.126;2024-01-30T04:11:41;10.50;99.90
15625;DHT22;7912;51.376;6.126;2024-01-30T04:14:11;10.50;99.90
15625;DHT22;7912;51.376;6.126;2024-01-30T04:16:38;10.50;99.90
15625;DHT22;7912;51.376;6.126;2024-01-30T04:19:06;10.50;99.90
15625;DHT22;7912;51.376;6.126;2024-01-30T04:21:33;10.50;99.90
15625;DHT22;7912;51.376;6.126;2024-01-30T04:24:01;10.50;99.90
15625;DHT22;7912;51.376;6.126;2024-01-30T04:26:28;10.50;99.90
15625;DHT22;7912;51.376;6.126;2024-01-30T04:28:55;10.50;99.90
15625;DHT22;7912;51.376;6.126;2024-01-30T04:31:23;10.50;99.90
15625;DHT22;7912;51.376;6.126;2024-01-30T04:33:50;10.50;99.90
15625;DHT22;7912;51.376;6.126;2024-01-30T04:36:18;10.50;99.90
15625;DHT22;7912;51.376;6.126;2024-01-30T04:38:45;10.50;99.90
15625;DHT22;7912;51.376;6.126;2024-01-30T04:41:12;10.40;99.90
15625;DHT22;7912;51.376;6.126;2024-01-30T04:43:39;10.40;99.90
15625;DHT22;7912;51.376;6.126;2024-01-30T04:46:06;10.40;99.90
15625;DHT22;7912;51.376;6.126;2024-01-30T04:48:34;10.40;99.90
15625;DHT22;7912;51.376;6.126;2024-01-30T04:51:01;10.30;99.90
15625;DHT22;7912;51.376;6.126;2024-01-30T04:53:30;10.30;99.90
15625;DHT22;7912;51.376;6.126;2024-01-30T04:55:58;10.30;99.90
15625;DHT22;7912;51.376;6.126;2024-01-30T04:58:25;10.30;99.90
15625;DHT22;7912;51.376;6.126;2024-01-30T05:00:52;10.20;99.90
15625;DHT22;7912;51.376;6.126;2024-01-30T05:03:20;10.20;99.90
15625;DHT22;7912;51.376;6.126;2024-01-30T05:05:49;10.20;99.90
15625;DHT22;7912;51.376;6.126;2024-01-30T05:08:19;10.20;99.90
15625;DHT22;7912;51.376;6.126;2024-01-30T05:10:46;10.20;99.90
15625;DHT22;7912;51.376;6.126;2024-01-30T05:13:13;10.10;99.90
15625;DHT22;7912;51.376;6.126;2024-01-30T05:15:41;10.10;99.90
15625;DHT22;7912;51.376;6.126;2024-01-30T05:18:08;10.10;99.90
15625;DHT22;7912;51.376;6.126;2024-01-30T05:20:36;10.00;99.90
15625;DHT22;7912;51.376;6.126;2024-01-30T05:23:03;10.00;99.90
15625;DHT22;7912;51.376;6.126;2024-01-30T05:25:30;10.00;99.90
15625;DHT22;7912;51.376;6.126;2024-01-30T05:27:58;10.00;99.90
15625;DHT22;7912;51.376;6.126;2024-01-30T05:30:25;10.00;99.90
15625;DHT22;7912;51.376;6.126;2024-01-30T05:32:52;10.00;99.90
15625;DHT22;7912;51.376;6.126;2024-01-30T05:35:20;10.00;99.90
15625;DHT22;7912;51.376;6.126;2024-01-30T05:37:51;10.00;99.90
15625;DHT22;7912;51.376;6.126;2024-01-30T05:40:18;10.00;99.90
15625;DHT22;7912;51.376;6.126;2024-01-30T05:42:45;10.10;99.90
15625;DHT22;7912;51.376;6.126;2024-01-30T05:45:13;10.10;99.90
15625;DHT22;7912;51.376;6.126;2024-01-30T05:47:40;10.10;99.90
15625;DHT22;7912;51.376;6.126;2024-01-30T05:50:08;10.20;99.90
15625;DHT22;7912;51.376;6.126;2024-01-30T05:52:35;10.20;99.90
15625;DHT22;7912;51.376;6.126;2024-01-30T05:55:02;10.20;99.90
15625;DHT22;7912;51.376;6.126;2024-01-30T05:57:30;10.30;99.90
15625;DHT22;7912;51.376;6.126;2024-01-30T05:59:58;10.30;99.90
15625;DHT22;7912;51.376;6.126;2024-01-30T06:02:25;10.40;99.90
15625;DHT22;7912;51.376;6.126;2024-01-30T06:04:54;10.40;99.90
15625;DHT22;7912;51.376;6.126;2024-01-30T06:07:22;10.40;99.90
15625;DHT22;7912;51.376;6.126;2024-01-30T06:09:49;10.50;99.90
15625;DHT22;7912;51.376;6.126;2024-01-30T06:12:17;10.50;99.90
15625;DHT22;7912;51.376;6.126;2024-01-30T06:14:45;10.50;99.90
15625;DHT22;7912;51.376;6.126;2024-01-30T06:17:13;10.60;99.90
15625;DHT22;7912;51.376;6.126;2024-01-30T06:19:41;10.60;99.90
15625;DHT22;7912;51.376;6.126;2024-01-30T06:22:09;10.60;99.90
15625;DHT22;7912;51.376;6.126;2024-01-30T06:24:38;10.60;99.90
15625;DHT22;7912;51.376;6.126;2024-01-30T06:27:06;10.60;99.90
15625;DHT22;7912;51.376;6.126;2024-01-30T06:29:33;10.60;99.90
15625;DHT22;7912;51.376;6.126;2024-01-30T06:32:02;10.60;99.90
15625;DHT22;7912;51.376;6.126;2024-01-30T06:34:30;10.60;99.90
15625;DHT22;7912;51.376;6.126;2024-01-30T06:36:58;10.60;99.90
15625;DHT22;7912;51.376;6.126;2024-01-30T06:39:26;10.60;99.90
15625;DHT22;7912;51.376;6.126;2024-01-30T06:41:53;10.60;99.90
15625;DHT22;7912;51.376;6.126;2024-01-30T06:44:21;10.70;99.90
15625;DHT22;7912;51.376;6.126;2024-01-30T06:46:48;10.70;99.90
15625;DHT22;7912;51.376;6.126;2024-01-30T06:49:15;10.70;99.90
15625;DHT22;7912;51.376;6.126;2024-01-30T06:51:43;10.70;99.90
15625;DHT22;7912;51.376;6.126;2024-01-30T06:54:11;10.70;99.90
15625;DHT22;7912;51.376;6.126;2024-01-30T06:56:38;10.70;99.90
15625;DHT22;7912;51.376;6.126;2024-01-30T06:59:05;10.70;99.90
15625;DHT22;7912;51.376;6.126;2024-01-30T07:01:33;10.80;99.90
15625;DHT22;7912;51.376;6.126;2024-01-30T07:04:00;10.80;99.90
15625;DHT22;7912;51.376;6.126;2024-01-30T07:06:30;10.80;99.90
15625;DHT22;7912;51.376;6.126;2024-01-30T07:09:00;10.80;99.90
15625;DHT22;7912;51.376;6.126;2024-01-30T07:11:30;10.80;99.90
15625;DHT22;7912;51.376;6.126;2024-01-30T07:14:04;10.80;99.90
15625;DHT22;7912;51.376;6.126;2024-01-30T07:16:31;10.90;99.90
15625;DHT22;7912;51.376;6.126;2024-01-30T07:18:59;10.90;99.90
15625;DHT22;7912;51.376;6.126;2024-01-30T07:21:26;10.90;99.90
15625;DHT22;7912;51.376;6.126;2024-01-30T07:23:55;10.90;99.90
15625;DHT22;7912;51.376;6.126;2024-01-30T07:26:22;10.90;99.90
15625;DHT22;7912;51.376;6.126;2024-01-30T07:28:52;10.90;99.90
15625;DHT22;7912;51.376;6.126;2024-01-30T07:31:23;10.90;99.90
15625;DHT22;7912;51.376;6.126;2024-01-30T07:33:54;10.90;99.90
15625;DHT22;7912;51.376;6.126;2024-01-30T07:36:22;10.90;99.90
15625;DHT22;7912;51.376;6.126;2024-01-30T07:38:49;11.00;99.90
15625;DHT22;7912;51.376;6.126;2024-01-30T07:41:17;11.00;99.90
15625;DHT22;7912;51.376;6.126;2024-01-30T07:43:48;11.00;99.90
15625;DHT22;7912;51.376;6.126;2024-01-30T07:46:15;11.00;99.90
15625;DHT22;7912;51.376;6.126;2024-01-30T07:48:42;11.10;99.90
15625;DHT22;7912;51.376;6.126;2024-01-30T07:51:13;11.00;99.90
15625;DHT22;7912;51.376;6.126;2024-01-30T07:53:40;11.00;99.90
15625;DHT22;7912;51.376;6.126;2024-01-30T07:56:08;11.00;99.90
15625;DHT22;7912;51.376;6.126;2024-01-30T07:58:36;11.00;99.90
15625;DHT22;7912;51.376;6.126;2024-01-30T08:01:04;11.00;99.90
15625;DHT22;7912;51.376;6.126;2024-01-30T08:03:34;11.10;99.90
15625;DHT22;7912;51.376;6.126;2024-01-30T08:06:03;11.10;99.90
15625;DHT22;7912;51.376;6.126;2024-01-30T08:08:30;11.10;99.90
15625;DHT22;7912;51.376;6.126;2024-01-30T08:10:58;11.10;99.90
15625;DHT22;7912;51.376;6.126;2024-01-30T08:13:25;11.10;99.90
15625;DHT22;7912;51.376;6.126;2024-01-30T08:15:53;11.10;99.90
15625;DHT22;7912;51.376;6.126;2024-01-30T08:21:46;11.10;99.90
15625;DHT22;7912;51.376;6.126;2024-01-30T08:24:13;11.20;99.90
15625;DHT22;7912;51.376;6.126;2024-01-30T08:26:40;11.20;99.90
15625;DHT22;7912;51.376;6.126;2024-01-30T08:32:12;11.20;99.90
15625;DHT22;7912;51.376;6.126;2024-01-30T08:34:40;11.20;99.90
15625;DHT22;7912;51.376;6.126;2024-01-30T08:37:07;11.20;99.90
15625;DHT22;7912;51.376;6.126;2024-01-30T08:39:35;11.20;99.90
15625;DHT22;7912;51.376;6.126;2024-01-30T08:42:02;11.30;99.90
15625;DHT22;7912;51.376;6.126;2024-01-30T08:44:31;11.30;99.90
15625;DHT22;7912;51.376;6.126;2024-01-30T08:47:05;11.30;99.90
15625;DHT22;7912;51.376;6.126;2024-01-30T08:49:33;11.40;99.90
15625;DHT22;7912;51.376;6.126;2024-01-30T08:52:03;11.50;99.90
15625;DHT22;7912;51.376;6.126;2024-01-30T08:54:31;11.50;99.90
15625;DHT22;7912;51.376;6.126;2024-01-30T08:57:01;11.60;99.90
15625;DHT22;7912;51.376;6.126;2024-01-30T08:59:32;11.60;99.90
15625;DHT22;7912;51.376;6.126;2024-01-30T09:02:00;11.80;99.90
15625;DHT22;7912;51.376;6.126;2024-01-30T09:04:39;11.90;99.90
15625;DHT22;7912;51.376;6.126;2024-01-30T09:07:08;12.00;99.90
15625;DHT22;7912;51.376;6.126;2024-01-30T09:09:40;12.10;99.90
15625;DHT22;7912;51.376;6.126;2024-01-30T09:12:08;12.20;99.90
15625;DHT22;7912;51.376;6.126;2024-01-30T09:14:39;12.30;99.90
15625;DHT22;7912;51.376;6.126;2024-01-30T09:17:10;12.40;99.90
15625;DHT22;7912;51.376;6.126;2024-01-30T09:19:40;12.60;99.90
15625;DHT22;7912;51.376;6.126;2024-01-30T09:22:08;12.60;99.90
15625;DHT22;7912;51.376;6.126;2024-01-30T09:24:35;12.80;99.90
15625;DHT22;7912;51.376;6.126;2024-01-30T09:27:03;12.90;99.90
15625;DHT22;7912;51.376;6.126;2024-01-30T09:29:30;13.00;99.90
15625;DHT22;7912;51.376;6.126;2024-01-30T09:31:57;13.10;99.90
15625;DHT22;7912;51.376;6.126;2024-01-30T09:34:25;13.30;99.90
15625;DHT22;7912;51.376;6.126;2024-01-30T09:36:52;13.30;99.90
15625;DHT22;7912;51.376;6.126;2024-01-30T09:39:19;13.40;99.90
15625;DHT22;7912;51.376;6.126;2024-01-30T09:42:00;13.50;99.90
15625;DHT22;7912;51.376;6.126;2024-01-30T09:44:35;13.50;99.90
15625;DHT22;7912;51.376;6.126;2024-01-30T09:47:04;13.60;99.90
15625;DHT22;7912;51.376;6.126;2024-01-30T09:49:32;13.60;99.90
15625;DHT22;7912;51.376;6.126;2024-01-30T09:52:05;13.70;99.90
15625;DHT22;7912;51.376;6.126;2024-01-30T09:54:35;13.70;99.90
15625;DHT22;7912;51.376;6.126;2024-01-30T09:57:03;13.80;99.90
15625;DHT22;7912;51.376;6.126;2024-01-30T09:59:32;13.90;99.90
15625;DHT22;7912;51.376;6.126;2024-01-30T10:02:00;13.90;99.90
15625;DHT22;7912;51.376;6.126;2024-01-30T10:04:28;14.00;99.90
15625;DHT22;7912;51.376;6.126;2024-01-30T10:06:56;14.00;99.90
15625;DHT22;7912;51.376;6.126;2024-01-30T10:09:25;14.10;99.90
15625;DHT22;7912;51.376;6.126;2024-01-30T10:11:53;14.10;99.90
15625;DHT22;7912;51.376;6.126;2024-01-30T10:14:23;14.20;99.90
15625;DHT22;7912;51.376;6.126;2024-01-30T10:16:51;14.30;99.90
15625;DHT22;7912;51.376;6.126;2024-01-30T10:19:19;14.30;99.90
15625;DHT22;7912;51.376;6.126;2024-01-30T10:21:47;14.40;99.90
15625;DHT22;7912;51.376;6.126;2024-01-30T10:24:14;14.50;99.90
15625;DHT22;7912;51.376;6.126;2024-01-30T10:26:43;14.50;99.90
15625;DHT22;7912;51.376;6.126;2024-01-30T10:29:11;14.60;99.90
15625;DHT22;7912;51.376;6.126;2024-01-30T10:31:39;14.70;99.90
15625;DHT22;7912;51.376;6.126;2024-01-30T10:34:06;14.70;99.90
15625;DHT22;7912;51.376;6.126;2024-01-30T10:36:47;14.80;99.90
15625;DHT22;7912;51.376;6.126;2024-01-30T10:39:17;14.80;99.90
15625;DHT22;7912;51.376;6.126;2024-01-30T10:41:48;14.90;99.90
15625;DHT22;7912;51.376;6.126;2024-01-30T10:44:22;14.90;99.90
15625;DHT22;7912;51.376;6.126;2024-01-30T10:46:56;15.00;99.90
15625;DHT22;7912;51.376;6.126;2024-01-30T10:49:30;15.00;99.90
15625;DHT22;7912;51.376;6.126;2024-01-30T10:51:58;15.00;99.90
15625;DHT22;7912;51.376;6.126;2024-01-30T10:54:27;15.10;99.90
15625;DHT22;7912;51.376;6.126;2024-01-30T10:56:57;15.10;99.90
15625;DHT22;7912;51.376;6.126;2024-01-30T10:59:31;15.20;99.90
15625;DHT22;7912;51.376;6.126;2024-01-30T11:02:00;15.20;99.90
15625;DHT22;7912;51.376;6.126;2024-01-30T11:04:40;15.20;99.90
15625;DHT22;7912;51.376;6.126;2024-01-30T11:07:17;15.30;99.90
15625;DHT22;7912;51.376;6.126;2024-01-30T11:10:04;15.30;99.90
15625;DHT22;7912;51.376;6.126;2024-01-30T11:12:38;15.40;99.90
15625;DHT22;7912;51.376;6.126;2024-01-30T11:15:13;15.40;99.90
15625;DHT22;7912;51.376;6.126;2024-01-30T11:17:51;15.40;99.90
15625;DHT22;7912;51.376;6.126;2024-01-30T11:20:27;15.40;99.90
15625;DHT22;7912;51.376;6.126;2024-01-30T11:23:00;15.50;99.90
15625;DHT22;7912;51.376;6.126;2024-01-30T11:25:36;15.50;99.90
15625;DHT22;7912;51.376;6.126;2024-01-30T11:28:16;15.50;99.90
15625;DHT22;7912;51.376;6.126;2024-01-30T11:30:46;15.40;99.90
15625;DHT22;7912;51.376;6.126;2024-01-30T11:33:29;15.50;99.90
15625;DHT22;7912;51.376;6.126;2024-01-30T11:36:01;15.40;99.90
15625;DHT22;7912;51.376;6.126;2024-01-30T11:38:34;15.40;99.90
15625;DHT22;7912;51.376;6.126;2024-01-30T11:41:02;15.50;99.90
15625;DHT22;7912;51.376;6.126;2024-01-30T11:43:31;15.50;99.90
15625;DHT22;7912;51.376;6.126;2024-01-30T11:46:00;15.50;99.90
15625;DHT22;7912;51.376;6.126;2024-01-30T11:48:29;15.50;99.90
15625;DHT22;7912;51.376;6.126;2024-01-30T11:50:56;15.60;99.90
15625;DHT22;7912;51.376;6.126;2024-01-30T11:53:24;15.60;99.90
15625;DHT22;7912;51.376;6.126;2024-01-30T11:55:54;15.60;99.90
15625;DHT22;7912;51.376;6.126;2024-01-30T11:58:25;15.70;99.90
15625;DHT22;7912;51.376;6.126;2024-01-30T12:00:57;15.70;99.90
15625;DHT22;7912;51.376;6.126;2024-01-30T12:03:25;15.70;99.90
15625;DHT22;7912;51.376;6.126;2024-01-30T12:05:59;15.80;99.90
15625;DHT22;7912;51.376;6.126;2024-01-30T12:08:26;15.80;99.90
15625;DHT22;7912;51.376;6.126;2024-01-30T12:10:57;15.90;99.90
15625;DHT22;7912;51.376;6.126;2024-01-30T12:13:26;15.90;99.90
15625;DHT22;7912;51.376;6.126;2024-01-30T12:15:58;15.90;99.90
15625;DHT22;7912;51.376;6.126;2024-01-30T12:18:26;16.00;99.90
15625;DHT22;7912;51.376;6.126;2024-01-30T12:21:00;16.00;99.90
15625;DHT22;7912;51.376;6.126;2024-01-30T12:23:29;16.00;99.90
15625;DHT22;7912;51.376;6.126;2024-01-30T12:25:57;16.10;99.90
15625;DHT22;7912;51.376;6.126;2024-01-30T12:28:25;16.10;99.90
15625;DHT22;7912;51.376;6.126;2024-01-30T12:31:04;16.10;99.90
15625;DHT22;7912;51.376;6.126;2024-01-30T12:33:32;16.20;99.90
15625;DHT22;7912;51.376;6.126;2024-01-30T12:36:04;16.20;99.90
15625;DHT22;7912;51.376;6.126;2024-01-30T12:38:32;16.20;99.90
15625;DHT22;7912;51.376;6.126;2024-01-30T12:41:00;16.30;99.90
15625;DHT22;7912;51.376;6.126;2024-01-30T12:43:27;16.30;99.90
15625;DHT22;7912;51.376;6.126;2024-01-30T12:46:05;16.30;99.90
15625;DHT22;7912;51.376;6.126;2024-01-30T12:48:33;16.30;99.90
15625;DHT22;7912;51.376;6.126;2024-01-30T12:51:00;16.30;99.90
15625;DHT22;7912;51.376;6.126;2024-01-30T12:53:27;16.30;99.90
15625;DHT22;7912;51.376;6.126;2024-01-30T12:55:55;16.30;99.90
15625;DHT22;7912;51.376;6.126;2024-01-30T12:58:24;16.30;99.90
15625;DHT22;7912;51.376;6.126;2024-01-30T13:00:53;16.30;99.90
15625;DHT22;7912;51.376;6.126;2024-01-30T13:03:22;16.30;99.90
15625;DHT22;7912;51.376;6.126;2024-01-30T13:05:52;16.20;99.90
15625;DHT22;7912;51.376;6.126;2024-01-30T13:08:23;16.20;99.90
15625;DHT22;7912;51.376;6.126;2024-01-30T13:10:51;16.20;99.90
15625;DHT22;7912;51.376;6.126;2024-01-30T13:13:21;16.10;99.90
15625;DHT22;7912;51.376;6.126;2024-01-30T13:15:49;16.10;99.90
15625;DHT22;7912;51.376;6.126;2024-01-30T13:18:16;16.10;99.90
15625;DHT22;7912;51.376;6.126;2024-01-30T13:20:43;16.00;99.90
15625;DHT22;7912;51.376;6.126;2024-01-30T13:23:11;15.90;99.90
15625;DHT22;7912;51.376;6.126;2024-01-30T13:25:38;15.90;99.90
15625;DHT22;7912;51.376;6.126;2024-01-30T13:28:06;15.90;99.90
15625;DHT22;7912;51.376;6.126;2024-01-30T13:30:34;15.90;99.90
15625;DHT22;7912;51.376;6.126;2024-01-30T13:33:05;15.80;99.90
15625;DHT22;7912;51.376;6.126;2024-01-30T13:35:32;15.80;99.90
15625;DHT22;7912;51.376;6.126;2024-01-30T13:38:04;15.80;99.90
15625;DHT22;7912;51.376;6.126;2024-01-30T13:40:32;15.70;99.90
15625;DHT22;7912;51.376;6.126;2024-01-30T13:42:59;15.70;99.90
15625;DHT22;7912;51.376;6.126;2024-01-30T13:45:27;15.60;99.90
15625;DHT22;7912;51.376;6.126;2024-01-30T13:47:54;15.60;99.90
15625;DHT22;7912;51.376;6.126;2024-01-30T13:50:22;15.60;99.90
15625;DHT22;7912;51.376;6.126;2024-01-30T13:52:53;15.50;99.90
15625;DHT22;7912;51.376;6.126;2024-01-30T13:55:20;15.50;99.90
15625;DHT22;7912;51.376;6.126;2024-01-30T13:57:48;15.50;99.90
15625;DHT22;7912;51.376;6.126;2024-01-30T14:00:17;15.40;99.90
15625;DHT22;7912;51.376;6.126;2024-01-30T14:02:45;15.40;99.90
15625;DHT22;7912;51.376;6.126;2024-01-30T14:05:12;15.50;99.90
15625;DHT22;7912;51.376;6.126;2024-01-30T14:07:41;15.60;99.90
15625;DHT22;7912;51.376;6.126;2024-01-30T14:10:10;15.70;99.90
15625;DHT22;7912;51.376;6.126;2024-01-30T14:12:42;15.90;99.90
15625;DHT22;7912;51.376;6.126;2024-01-30T14:15:15;16.10;99.90
15625;DHT22;7912;51.376;6.126;2024-01-30T14:17:55;16.30;99.90
15625;DHT22;7912;51.376;6.126;2024-01-30T14:20:26;16.50;99.90
15625;DHT22;7912;51.376;6.126;2024-01-30T14:22:54;16.70;99.90
15625;DHT22;7912;51.376;6.126;2024-01-30T14:25:29;16.90;99.90
15625;DHT22;7912;51.376;6.126;2024-01-30T14:27:56;17.10;99.90
15625;DHT22;7912;51.376;6.126;2024-01-30T14:30:26;17.30;99.90
15625;DHT22;7912;51.376;6.126;2024-01-30T14:32:54;17.40;99.90
15625;DHT22;7912;51.376;6.126;2024-01-30T14:35:21;17.60;99.90
15625;DHT22;7912;51.376;6.126;2024-01-30T14:37:49;17.70;99.90
15625;DHT22;7912;51.376;6.126;2024-01-30T14:40:17;17.80;99.90
15625;DHT22;7912;51.376;6.126;2024-01-30T14:42:45;17.70;99.50
15625;DHT22;7912;51.376;6.126;2024-01-30T14:45:12;17.60;99.10
15625;DHT22;7912;51.376;6.126;2024-01-30T14:47:40;17.50;98.90
15625;DHT22;7912;51.376;6.126;2024-01-30T14:50:08;17.30;98.70
15625;DHT22;7912;51.376;6.126;2024-01-30T14:52:36;17.20;98.80
15625;DHT22;7912;51.376;6.126;2024-01-30T14:55:05;17.00;98.80
15625;DHT22;7912;51.376;6.126;2024-01-30T14:57:32;16.80;98.90
15625;DHT22;7912;51.376;6.126;2024-01-30T15:00:02;16.60;98.90
15625;DHT22;7912;51.376;6.126;2024-01-30T15:02:29;16.50;99.10
15625;DHT22;7912;51.376;6.126;2024-01-30T15:04:56;16.30;99.10
15625;DHT22;7912;51.376;6.126;2024-01-30T15:07:27;16.20;99.10
15625;DHT22;7912;51.376;6.126;2024-01-30T15:10:09;16.10;99.00
15625;DHT22;7912;51.376;6.126;2024-01-30T15:12:37;15.90;99.30
15625;DHT22;7912;51.376;6.126;2024-01-30T15:15:07;15.80;99.50
15625;DHT22;7912;51.376;6.126;2024-01-30T15:17:37;15.70;99.50
15625;DHT22;7912;51.376;6.126;2024-01-30T15:20:05;15.60;99.70
15625;DHT22;7912;51.376;6.126;2024-01-30T15:22:33;15.50;99.90
15625;DHT22;7912;51.376;6.126;2024-01-30T15:25:06;15.40;99.90
15625;DHT22;7912;51.376;6.126;2024-01-30T15:27:34;15.40;99.90
15625;DHT22;7912;51.376;6.126;2024-01-30T15:30:01;15.30;99.90
15625;DHT22;7912;51.376;6.126;2024-01-30T15:32:29;15.20;99.90
15625;DHT22;7912;51.376;6.126;2024-01-30T15:34:56;15.20;99.90
15625;DHT22;7912;51.376;6.126;2024-01-30T15:37:27;15.10;99.90
15625;DHT22;7912;51.376;6.126;2024-01-30T15:39:55;15.10;99.90
15625;DHT22;7912;51.376;6.126;2024-01-30T15:42:22;15.00;99.90
15625;DHT22;7912;51.376;6.126;2024-01-30T15:44:50;15.00;99.90
15625;DHT22;7912;51.376;6.126;2024-01-30T15:47:17;14.90;99.80
15625;DHT22;7912;51.376;6.126;2024-01-30T15:49:44;14.90;99.90
15625;DHT22;7912;51.376;6.126;2024-01-30T15:52:13;14.80;99.90
15625;DHT22;7912;51.376;6.126;2024-01-30T15:54:46;14.70;99.90
15625;DHT22;7912;51.376;6.126;2024-01-30T15:57:14;14.70;99.90
15625;DHT22;7912;51.376;6.126;2024-01-30T15:59:42;14.60;99.90
15625;DHT22;7912;51.376;6.126;2024-01-30T16:02:09;14.60;99.90
15625;DHT22;7912;51.376;6.126;2024-01-30T16:04:37;14.50;99.90
15625;DHT22;7912;51.376;6.126;2024-01-30T16:07:04;14.40;99.90
15625;DHT22;7912;51.376;6.126;2024-01-30T16:09:31;14.40;99.90
15625;DHT22;7912;51.376;6.126;2024-01-30T16:11:59;14.30;99.90